Water Mill, New York
Current Conditions -  °F | °C
As of 6:53 PM on Thursday 18 Dec 2014 (Local Time) from KFOK Reporting Station
Clear Clear  
Wind Chill: 29°   Ceiling: Unl
Heat Index: 37°   Visibility: 10mi
Dew Point: 26°   Wind: 12mph
Humidity: 65%   Direction: 290°WNW
Pressure: 29.93"   Gusts: NA
Location:  40.92°N, 72.35°W
Report Text: KFOK 182353Z AUTO 29010KT 10SM CLR 03/M03 A2993 RMK AO2 SLP136 T00281033 10072 20028 51006 TSNO
Loading
Personal Weather Stations






























Interactive Weather Map New forecast layout! Learn more

10-Day Weather Forecast

Advertisements
Track Severe Weather on mobile